Clifford, Michigan
Current Conditions -  °F | °C
As of 12:55 PM on Friday 24 Oct 2014 (Local Time) from KCFS Reporting Station
Scattered Clouds Scattered Clouds  
Wind Chill: 13°   Ceiling: Unl
Heat Index: 13°   Visibility: 10mi
Dew Point:   Wind: 5mph
Humidity: 70%   Direction: 170°S
Pressure: 30.03"   Gusts: NA
Location:  43.31°N, 83.18°W
Report Text: KCFS 241655Z AUTO 17004KT 10SM SCT042 SCT060 13/08 A3003 RMK AO2 T01290075
Loading
Personal Weather Stations






























Interactive Weather Map
Tropical Storm Tracking
New forecast layout! Learn more

10-Day Weather Forecast

Advertisements
Track Severe Weather on mobile